sensor_id;sensor_type;location;lat;lon;timestamp;temperature;humidity
71668;DHT22;59504;54.806;9.640;2024-01-25T00:00:25;7.10;78.00
71668;DHT22;59504;54.806;9.640;2024-01-25T00:02:45;7.10;77.80
71668;DHT22;59504;54.806;9.640;2024-01-25T00:05:06;7.10;77.90
71668;DHT22;59504;54.806;9.640;2024-01-25T00:07:27;7.10;77.90
71668;DHT22;59504;54.806;9.640;2024-01-25T00:09:47;7.20;77.80
71668;DHT22;59504;54.806;9.640;2024-01-25T00:12:08;7.20;77.80
71668;DHT22;59504;54.806;9.640;2024-01-25T00:14:28;7.10;77.60
71668;DHT22;59504;54.806;9.640;2024-01-25T00:16:49;7.10;77.60
71668;DHT22;59504;54.806;9.640;2024-01-25T00:19:09;7.10;77.50
71668;DHT22;59504;54.806;9.640;2024-01-25T00:21:30;7.10;77.50
71668;DHT22;59504;54.806;9.640;2024-01-25T00:23:50;7.10;77.50
71668;DHT22;59504;54.806;9.640;2024-01-25T00:26:11;7.20;77.40
71668;DHT22;59504;54.806;9.640;2024-01-25T00:28:32;7.20;77.30
71668;DHT22;59504;54.806;9.640;2024-01-25T00:30:33;7.10;77.20
71668;DHT22;59504;54.806;9.640;2024-01-25T00:32:34;7.10;77.10
71668;DHT22;59504;54.806;9.640;2024-01-25T00:34:35;7.10;77.00
71668;DHT22;59504;54.806;9.640;2024-01-25T00:36:35;7.10;76.90
71668;DHT22;59504;54.806;9.640;2024-01-25T00:38:36;7.10;76.90
71668;DHT22;59504;54.806;9.640;2024-01-25T00:40:36;7.10;76.80
71668;DHT22;59504;54.806;9.640;2024-01-25T00:42:39;7.10;76.80
71668;DHT22;59504;54.806;9.640;2024-01-25T00:44:41;7.10;76.70
71668;DHT22;59504;54.806;9.640;2024-01-25T00:46:41;7.10;76.80
71668;DHT22;59504;54.806;9.640;2024-01-25T00:48:43;7.10;76.70
71668;DHT22;59504;54.806;9.640;2024-01-25T00:50:43;7.10;76.60
71668;DHT22;59504;54.806;9.640;2024-01-25T00:52:44;7.10;76.60
71668;DHT22;59504;54.806;9.640;2024-01-25T00:54:45;7.10;76.50
71668;DHT22;59504;54.806;9.640;2024-01-25T00:56:46;7.10;76.50
71668;DHT22;59504;54.806;9.640;2024-01-25T00:58:50;7.10;76.40
71668;DHT22;59504;54.806;9.640;2024-01-25T01:00:50;7.10;76.40
71668;DHT22;59504;54.806;9.640;2024-01-25T01:02:51;7.10;76.50
71668;DHT22;59504;54.806;9.640;2024-01-25T01:04:55;7.10;76.60
71668;DHT22;59504;54.806;9.640;2024-01-25T01:07:15;7.10;76.60
71668;DHT22;59504;54.806;9.640;2024-01-25T01:09:36;7.10;76.40
71668;DHT22;59504;54.806;9.640;2024-01-25T01:11:57;7.10;76.40
71668;DHT22;59504;54.806;9.640;2024-01-25T01:14:17;7.10;76.40
71668;DHT22;59504;54.806;9.640;2024-01-25T01:16:38;7.10;76.50
71668;DHT22;59504;54.806;9.640;2024-01-25T01:18:58;7.00;76.40
71668;DHT22;59504;54.806;9.640;2024-01-25T01:21:06;7.10;76.60
71668;DHT22;59504;54.806;9.640;2024-01-25T01:23:25;7.00;76.60
71668;DHT22;59504;54.806;9.640;2024-01-25T01:25:25;7.10;76.60
71668;DHT22;59504;54.806;9.640;2024-01-25T01:27:46;7.10;76.60
71668;DHT22;59504;54.806;9.640;2024-01-25T01:30:07;7.00;76.60
71668;DHT22;59504;54.806;9.640;2024-01-25T01:32:28;7.00;76.50
71668;DHT22;59504;54.806;9.640;2024-01-25T01:34:49;7.00;76.60
71668;DHT22;59504;54.806;9.640;2024-01-25T01:37:09;7.00;76.60
71668;DHT22;59504;54.806;9.640;2024-01-25T01:39:30;7.00;76.70
71668;DHT22;59504;54.806;9.640;2024-01-25T01:41:50;7.00;76.70
71668;DHT22;59504;54.806;9.640;2024-01-25T01:44:11;7.00;76.90
71668;DHT22;59504;54.806;9.640;2024-01-25T01:46:35;7.10;77.70
71668;DHT22;59504;54.806;9.640;2024-01-25T01:48:42;7.10;76.80
71668;DHT22;59504;54.806;9.640;2024-01-25T01:50:43;7.00;76.90
71668;DHT22;59504;54.806;9.640;2024-01-25T01:52:44;7.00;76.80
71668;DHT22;59504;54.806;9.640;2024-01-25T01:54:45;7.00;76.90
71668;DHT22;59504;54.806;9.640;2024-01-25T01:56:46;7.00;77.10
71668;DHT22;59504;54.806;9.640;2024-01-25T01:58:47;7.00;77.30
71668;DHT22;59504;54.806;9.640;2024-01-25T02:00:48;7.00;77.40
71668;DHT22;59504;54.806;9.640;2024-01-25T02:02:49;7.00;77.60
71668;DHT22;59504;54.806;9.640;2024-01-25T02:04:50;7.00;77.50
71668;DHT22;59504;54.806;9.640;2024-01-25T02:06:51;7.00;77.60
71668;DHT22;59504;54.806;9.640;2024-01-25T02:09:12;7.00;77.60
71668;DHT22;59504;54.806;9.640;2024-01-25T02:11:33;7.00;77.60
71668;DHT22;59504;54.806;9.640;2024-01-25T02:13:53;6.90;77.50
71668;DHT22;59504;54.806;9.640;2024-01-25T02:16:14;6.90;77.70
71668;DHT22;59504;54.806;9.640;2024-01-25T02:18:15;6.90;77.70
71668;DHT22;59504;54.806;9.640;2024-01-25T02:20:35;6.90;77.80
71668;DHT22;59504;54.806;9.640;2024-01-25T02:22:56;6.90;77.80
71668;DHT22;59504;54.806;9.640;2024-01-25T02:25:16;6.90;77.90
71668;DHT22;59504;54.806;9.640;2024-01-25T02:27:37;6.90;77.80
71668;DHT22;59504;54.806;9.640;2024-01-25T02:29:59;6.90;77.80
71668;DHT22;59504;54.806;9.640;2024-01-25T02:32:19;6.90;77.90
71668;DHT22;59504;54.806;9.640;2024-01-25T02:34:40;6.90;77.80
71668;DHT22;59504;54.806;9.640;2024-01-25T02:37:00;6.90;78.40
71668;DHT22;59504;54.806;9.640;2024-01-25T02:39:01;6.90;77.70
71668;DHT22;59504;54.806;9.640;2024-01-25T02:41:01;7.00;77.70
71668;DHT22;59504;54.806;9.640;2024-01-25T02:43:02;6.80;77.50
71668;DHT22;59504;54.806;9.640;2024-01-25T02:45:03;6.90;77.80
71668;DHT22;59504;54.806;9.640;2024-01-25T02:47:03;6.90;77.90
71668;DHT22;59504;54.806;9.640;2024-01-25T02:49:04;7.00;77.80
71668;DHT22;59504;54.806;9.640;2024-01-25T02:51:04;6.90;77.70
71668;DHT22;59504;54.806;9.640;2024-01-25T02:53:05;6.90;77.50
71668;DHT22;59504;54.806;9.640;2024-01-25T02:55:06;6.90;78.30
71668;DHT22;59504;54.806;9.640;2024-01-25T02:57:12;6.80;77.60
71668;DHT22;59504;54.806;9.640;2024-01-25T02:59:13;6.80;77.60
71668;DHT22;59504;54.806;9.640;2024-01-25T03:01:40;6.80;77.80
71668;DHT22;59504;54.806;9.640;2024-01-25T03:04:01;6.80;77.90
71668;DHT22;59504;54.806;9.640;2024-01-25T03:06:15;6.80;77.80
71668;DHT22;59504;54.806;9.640;2024-01-25T03:08:36;7.00;78.00
71668;DHT22;59504;54.806;9.640;2024-01-25T03:10:57;6.80;78.00
71668;DHT22;59504;54.806;9.640;2024-01-25T03:13:17;6.80;77.70
71668;DHT22;59504;54.806;9.640;2024-01-25T03:15:38;6.80;77.60
71668;DHT22;59504;54.806;9.640;2024-01-25T03:17:58;6.90;77.50
71668;DHT22;59504;54.806;9.640;2024-01-25T03:20:19;6.90;77.50
71668;DHT22;59504;54.806;9.640;2024-01-25T03:22:39;6.80;77.30
71668;DHT22;59504;54.806;9.640;2024-01-25T03:24:40;6.80;77.40
71668;DHT22;59504;54.806;9.640;2024-01-25T03:26:40;6.80;77.40
71668;DHT22;59504;54.806;9.640;2024-01-25T03:28:41;6.90;77.50
71668;DHT22;59504;54.806;9.640;2024-01-25T03:30:42;6.80;77.40
71668;DHT22;59504;54.806;9.640;2024-01-25T03:32:42;6.80;77.40
71668;DHT22;59504;54.806;9.640;2024-01-25T03:34:43;6.80;77.40
71668;DHT22;59504;54.806;9.640;2024-01-25T03:36:43;6.80;77.50
71668;DHT22;59504;54.806;9.640;2024-01-25T03:38:44;6.80;77.50
71668;DHT22;59504;54.806;9.640;2024-01-25T03:40:45;6.90;77.60
71668;DHT22;59504;54.806;9.640;2024-01-25T03:42:45;7.00;77.60
71668;DHT22;59504;54.806;9.640;2024-01-25T03:44:46;6.90;77.50
71668;DHT22;59504;54.806;9.640;2024-01-25T03:46:47;6.80;77.50
71668;DHT22;59504;54.806;9.640;2024-01-25T03:49:08;6.80;77.60
71668;DHT22;59504;54.806;9.640;2024-01-25T03:51:28;6.80;77.80
71668;DHT22;59504;54.806;9.640;2024-01-25T03:53:29;6.80;77.90
71668;DHT22;59504;54.806;9.640;2024-01-25T03:55:30;6.80;78.00
71668;DHT22;59504;54.806;9.640;2024-01-25T03:57:50;6.80;78.10
71668;DHT22;59504;54.806;9.640;2024-01-25T04:00:11;6.80;78.20
71668;DHT22;59504;54.806;9.640;2024-01-25T04:02:32;6.80;78.30
71668;DHT22;59504;54.806;9.640;2024-01-25T04:04:32;6.80;78.40
71668;DHT22;59504;54.806;9.640;2024-01-25T04:06:33;6.80;78.70
71668;DHT22;59504;54.806;9.640;2024-01-25T04:08:33;6.80;78.70
71668;DHT22;59504;54.806;9.640;2024-01-25T04:10:34;6.80;78.80
71668;DHT22;59504;54.806;9.640;2024-01-25T04:12:35;6.80;78.90
71668;DHT22;59504;54.806;9.640;2024-01-25T04:14:35;6.70;78.80
71668;DHT22;59504;54.806;9.640;2024-01-25T04:16:36;6.70;78.90
71668;DHT22;59504;54.806;9.640;2024-01-25T04:18:36;6.70;79.10
71668;DHT22;59504;54.806;9.640;2024-01-25T04:20:37;6.70;79.20
71668;DHT22;59504;54.806;9.640;2024-01-25T04:22:42;6.70;79.30
71668;DHT22;59504;54.806;9.640;2024-01-25T04:24:53;6.70;79.20
71668;DHT22;59504;54.806;9.640;2024-01-25T04:26:54;6.70;79.20
71668;DHT22;59504;54.806;9.640;2024-01-25T04:28:55;6.70;79.20
71668;DHT22;59504;54.806;9.640;2024-01-25T04:30:57;6.70;79.20
71668;DHT22;59504;54.806;9.640;2024-01-25T04:33:17;6.70;79.20
71668;DHT22;59504;54.806;9.640;2024-01-25T04:35:38;6.70;79.30
71668;DHT22;59504;54.806;9.640;2024-01-25T04:37:58;6.70;79.40
71668;DHT22;59504;54.806;9.640;2024-01-25T04:40:19;6.80;79.30
71668;DHT22;59504;54.806;9.640;2024-01-25T04:42:39;6.60;79.20
71668;DHT22;59504;54.806;9.640;2024-01-25T04:45:00;6.60;79.20
71668;DHT22;59504;54.806;9.640;2024-01-25T04:47:21;6.60;79.20
71668;DHT22;59504;54.806;9.640;2024-01-25T04:49:34;6.60;79.20
71668;DHT22;59504;54.806;9.640;2024-01-25T04:51:35;6.60;79.30
71668;DHT22;59504;54.806;9.640;2024-01-25T04:53:35;6.70;79.50
71668;DHT22;59504;54.806;9.640;2024-01-25T04:55:37;6.60;79.40
71668;DHT22;59504;54.806;9.640;2024-01-25T04:57:46;6.60;79.40
71668;DHT22;59504;54.806;9.640;2024-01-25T05:00:09;6.60;79.50
71668;DHT22;59504;54.806;9.640;2024-01-25T05:02:29;6.60;79.40
71668;DHT22;59504;54.806;9.640;2024-01-25T05:04:50;6.60;79.50
71668;DHT22;59504;54.806;9.640;2024-01-25T05:07:11;6.60;79.80
71668;DHT22;59504;54.806;9.640;2024-01-25T05:09:31;6.60;79.70
71668;DHT22;59504;54.806;9.640;2024-01-25T05:11:52;6.60;79.60
71668;DHT22;59504;54.806;9.640;2024-01-25T05:14:12;6.60;79.60
71668;DHT22;59504;54.806;9.640;2024-01-25T05:16:33;6.60;79.60
71668;DHT22;59504;54.806;9.640;2024-01-25T05:18:35;6.60;79.60
71668;DHT22;59504;54.806;9.640;2024-01-25T05:20:35;6.60;79.70
71668;DHT22;59504;54.806;9.640;2024-01-25T05:22:37;6.60;79.70
71668;DHT22;59504;54.806;9.640;2024-01-25T05:24:41;6.50;79.60
71668;DHT22;59504;54.806;9.640;2024-01-25T05:26:41;6.60;79.70
71668;DHT22;59504;54.806;9.640;2024-01-25T05:28:42;6.60;79.60
71668;DHT22;59504;54.806;9.640;2024-01-25T05:30:42;6.70;79.70
71668;DHT22;59504;54.806;9.640;2024-01-25T05:32:44;6.50;79.70
71668;DHT22;59504;54.806;9.640;2024-01-25T05:34:44;6.60;79.60
71668;DHT22;59504;54.806;9.640;2024-01-25T05:36:45;6.60;79.60
71668;DHT22;59504;54.806;9.640;2024-01-25T05:38:45;6.60;79.60
71668;DHT22;59504;54.806;9.640;2024-01-25T05:40:51;6.60;79.40
71668;DHT22;59504;54.806;9.640;2024-01-25T05:43:11;6.60;79.60
71668;DHT22;59504;54.806;9.640;2024-01-25T05:45:13;6.50;79.50
71668;DHT22;59504;54.806;9.640;2024-01-25T05:47:34;6.60;79.50
71668;DHT22;59504;54.806;9.640;2024-01-25T05:49:55;6.60;79.50
71668;DHT22;59504;54.806;9.640;2024-01-25T05:52:16;6.60;79.60
71668;DHT22;59504;54.806;9.640;2024-01-25T05:54:36;6.60;79.60
71668;DHT22;59504;54.806;9.640;2024-01-25T05:56:57;6.60;79.60
71668;DHT22;59504;54.806;9.640;2024-01-25T05:59:17;6.50;79.50
71668;DHT22;59504;54.806;9.640;2024-01-25T06:01:38;6.60;79.50
71668;DHT22;59504;54.806;9.640;2024-01-25T06:03:58;6.60;79.50
71668;DHT22;59504;54.806;9.640;2024-01-25T06:06:19;6.60;79.50
71668;DHT22;59504;54.806;9.640;2024-01-25T06:08:23;6.60;79.60
71668;DHT22;59504;54.806;9.640;2024-01-25T06:10:24;6.50;79.50
71668;DHT22;59504;54.806;9.640;2024-01-25T06:12:24;6.50;79.60
71668;DHT22;59504;54.806;9.640;2024-01-25T06:14:28;6.50;79.60
71668;DHT22;59504;54.806;9.640;2024-01-25T06:16:43;6.50;79.60
71668;DHT22;59504;54.806;9.640;2024-01-25T06:19:05;6.50;79.60
71668;DHT22;59504;54.806;9.640;2024-01-25T06:21:25;6.50;79.60
71668;DHT22;59504;54.806;9.640;2024-01-25T06:23:46;6.60;79.60
71668;DHT22;59504;54.806;9.640;2024-01-25T06:25:55;6.50;79.40
71668;DHT22;59504;54.806;9.640;2024-01-25T06:28:16;6.60;79.40
71668;DHT22;59504;54.806;9.640;2024-01-25T06:30:36;6.50;79.20
71668;DHT22;59504;54.806;9.640;2024-01-25T06:32:57;6.50;79.00
71668;DHT22;59504;54.806;9.640;2024-01-25T06:35:17;6.40;79.00
71668;DHT22;59504;54.806;9.640;2024-01-25T06:37:38;6.40;79.10
71668;DHT22;59504;54.806;9.640;2024-01-25T06:39:59;6.40;79.10
71668;DHT22;59504;54.806;9.640;2024-01-25T06:42:19;6.40;79.20
71668;DHT22;59504;54.806;9.640;2024-01-25T06:44:40;6.40;79.30
71668;DHT22;59504;54.806;9.640;2024-01-25T06:47:00;6.40;79.50
71668;DHT22;59504;54.806;9.640;2024-01-25T06:49:21;6.40;79.60
71668;DHT22;59504;54.806;9.640;2024-01-25T06:51:41;6.50;79.70
71668;DHT22;59504;54.806;9.640;2024-01-25T06:54:02;6.40;79.60
71668;DHT22;59504;54.806;9.640;2024-01-25T06:56:22;6.40;79.70
71668;DHT22;59504;54.806;9.640;2024-01-25T06:58:43;6.40;79.80
71668;DHT22;59504;54.806;9.640;2024-01-25T07:01:03;6.40;79.80
71668;DHT22;59504;54.806;9.640;2024-01-25T07:03:27;6.40;79.90
71668;DHT22;59504;54.806;9.640;2024-01-25T07:05:27;6.40;80.00
71668;DHT22;59504;54.806;9.640;2024-01-25T07:07:30;6.50;80.20
71668;DHT22;59504;54.806;9.640;2024-01-25T07:09:33;6.40;80.10
71668;DHT22;59504;54.806;9.640;2024-01-25T07:11:33;6.40;80.10
71668;DHT22;59504;54.806;9.640;2024-01-25T07:13:34;6.40;80.20
71668;DHT22;59504;54.806;9.640;2024-01-25T07:15:35;6.50;80.30
71668;DHT22;59504;54.806;9.640;2024-01-25T07:17:35;6.40;80.50
71668;DHT22;59504;54.806;9.640;2024-01-25T07:19:36;6.40;80.30
71668;DHT22;59504;54.806;9.640;2024-01-25T07:21:37;6.40;80.20
71668;DHT22;59504;54.806;9.640;2024-01-25T07:24:02;6.40;80.10
71668;DHT22;59504;54.806;9.640;2024-01-25T07:26:03;6.40;80.10
71668;DHT22;59504;54.806;9.640;2024-01-25T07:28:24;6.40;80.10
71668;DHT22;59504;54.806;9.640;2024-01-25T07:30:36;6.40;80.00
71668;DHT22;59504;54.806;9.640;2024-01-25T07:32:56;6.40;80.10
71668;DHT22;59504;54.806;9.640;2024-01-25T07:35:17;6.40;80.10
71668;DHT22;59504;54.806;9.640;2024-01-25T07:37:41;6.30;80.00
71668;DHT22;59504;54.806;9.640;2024-01-25T07:40:01;6.40;80.10
71668;DHT22;59504;54.806;9.640;2024-01-25T07:42:24;6.30;80.00
71668;DHT22;59504;54.806;9.640;2024-01-25T07:44:44;6.30;80.00
71668;DHT22;59504;54.806;9.640;2024-01-25T07:47:05;6.30;80.10
71668;DHT22;59504;54.806;9.640;2024-01-25T07:49:25;6.30;80.20
71668;DHT22;59504;54.806;9.640;2024-01-25T07:51:41;6.30;80.30
71668;DHT22;59504;54.806;9.640;2024-01-25T07:54:02;6.20;80.20
71668;DHT22;59504;54.806;9.640;2024-01-25T07:56:22;6.20;80.30
71668;DHT22;59504;54.806;9.640;2024-01-25T07:58:43;6.20;80.40
71668;DHT22;59504;54.806;9.640;2024-01-25T08:00:51;6.20;80.50
71668;DHT22;59504;54.806;9.640;2024-01-25T08:03:11;6.20;80.50
71668;DHT22;59504;54.806;9.640;2024-01-25T08:05:32;6.20;80.50
71668;DHT22;59504;54.806;9.640;2024-01-25T08:07:52;6.10;80.50
71668;DHT22;59504;54.806;9.640;2024-01-25T08:10:13;6.10;80.50
71668;DHT22;59504;54.806;9.640;2024-01-25T08:12:34;6.10;80.50
71668;DHT22;59504;54.806;9.640;2024-01-25T08:14:54;6.10;80.60
71668;DHT22;59504;54.806;9.640;2024-01-25T08:17:15;6.10;80.60
71668;DHT22;59504;54.806;9.640;2024-01-25T08:19:35;6.10;80.70
71668;DHT22;59504;54.806;9.640;2024-01-25T08:21:56;6.10;80.70
71668;DHT22;59504;54.806;9.640;2024-01-25T08:24:16;6.00;80.60
71668;DHT22;59504;54.806;9.640;2024-01-25T08:26:17;6.10;80.80
71668;DHT22;59504;54.806;9.640;2024-01-25T08:28:18;6.10;80.70
71668;DHT22;59504;54.806;9.640;2024-01-25T08:30:18;6.10;80.70
71668;DHT22;59504;54.806;9.640;2024-01-25T08:32:19;6.10;80.80
71668;DHT22;59504;54.806;9.640;2024-01-25T08:34:20;6.00;80.70
71668;DHT22;59504;54.806;9.640;2024-01-25T08:36:21;6.10;81.00
71668;DHT22;59504;54.806;9.640;2024-01-25T08:38:23;6.00;81.00
71668;DHT22;59504;54.806;9.640;2024-01-25T08:40:43;6.10;81.10
71668;DHT22;59504;54.806;9.640;2024-01-25T08:42:44;6.10;81.10
71668;DHT22;59504;54.806;9.640;2024-01-25T08:44:51;6.10;81.10
71668;DHT22;59504;54.806;9.640;2024-01-25T08:47:11;6.10;81.10
71668;DHT22;59504;54.806;9.640;2024-01-25T08:49:32;6.20;81.30
71668;DHT22;59504;54.806;9.640;2024-01-25T08:51:53;6.10;81.40
71668;DHT22;59504;54.806;9.640;2024-01-25T08:54:13;6.20;81.40
71668;DHT22;59504;54.806;9.640;2024-01-25T08:56:34;6.20;81.40
71668;DHT22;59504;54.806;9.640;2024-01-25T08:58:55;6.30;81.50
71668;DHT22;59504;54.806;9.640;2024-01-25T09:01:15;6.20;81.30
71668;DHT22;59504;54.806;9.640;2024-01-25T09:03:36;6.30;81.30
71668;DHT22;59504;54.806;9.640;2024-01-25T09:05:56;6.30;81.30
71668;DHT22;59504;54.806;9.640;2024-01-25T09:08:17;6.30;81.20
71668;DHT22;59504;54.806;9.640;2024-01-25T09:10:38;6.30;81.20
71668;DHT22;59504;54.806;9.640;2024-01-25T09:12:59;6.30;81.00
71668;DHT22;59504;54.806;9.640;2024-01-25T09:15:00;6.30;81.00
71668;DHT22;59504;54.806;9.640;2024-01-25T09:17:00;6.40;81.10
71668;DHT22;59504;54.806;9.640;2024-01-25T09:19:21;6.40;81.10
71668;DHT22;59504;54.806;9.640;2024-01-25T09:21:41;6.40;81.10
71668;DHT22;59504;54.806;9.640;2024-01-25T09:24:02;6.40;81.10
71668;DHT22;59504;54.806;9.640;2024-01-25T09:26:23;6.40;81.10
71668;DHT22;59504;54.806;9.640;2024-01-25T09:28:43;6.40;81.10
71668;DHT22;59504;54.806;9.640;2024-01-25T09:31:04;6.40;81.10
71668;DHT22;59504;54.806;9.640;2024-01-25T09:33:25;6.40;81.00
71668;DHT22;59504;54.806;9.640;2024-01-25T09:35:45;6.50;81.00
71668;DHT22;59504;54.806;9.640;2024-01-25T09:38:08;6.50;81.00
71668;DHT22;59504;54.806;9.640;2024-01-25T09:40:28;6.50;81.00
71668;DHT22;59504;54.806;9.640;2024-01-25T09:42:49;6.50;81.00
71668;DHT22;59504;54.806;9.640;2024-01-25T09:45:12;6.50;80.90
71668;DHT22;59504;54.806;9.640;2024-01-25T09:47:36;6.50;80.80
71668;DHT22;59504;54.806;9.640;2024-01-25T09:49:57;6.50;80.90
71668;DHT22;59504;54.806;9.640;2024-01-25T09:52:17;6.50;80.90
71668;DHT22;59504;54.806;9.640;2024-01-25T09:54:39;6.50;80.80
71668;DHT22;59504;54.806;9.640;2024-01-25T09:57:01;6.60;80.90
71668;DHT22;59504;54.806;9.640;2024-01-25T09:59:23;6.60;80.80
71668;DHT22;59504;54.806;9.640;2024-01-25T10:01:24;6.60;80.80
71668;DHT22;59504;54.806;9.640;2024-01-25T10:03:25;6.80;80.80
71668;DHT22;59504;54.806;9.640;2024-01-25T10:05:29;6.60;80.50
71668;DHT22;59504;54.806;9.640;2024-01-25T10:07:50;6.70;80.60
71668;DHT22;59504;54.806;9.640;2024-01-25T10:10:11;6.70;80.40
71668;DHT22;59504;54.806;9.640;2024-01-25T10:12:32;6.70;80.30
71668;DHT22;59504;54.806;9.640;2024-01-25T10:14:52;6.70;80.30
71668;DHT22;59504;54.806;9.640;2024-01-25T10:17:13;6.70;80.30
71668;DHT22;59504;54.806;9.640;2024-01-25T10:19:34;6.60;80.20
71668;DHT22;59504;54.806;9.640;2024-01-25T10:21:35;6.70;80.50
71668;DHT22;59504;54.806;9.640;2024-01-25T10:23:36;6.70;80.50
71668;DHT22;59504;54.806;9.640;2024-01-25T10:25:37;6.70;80.40
71668;DHT22;59504;54.806;9.640;2024-01-25T10:27:38;6.70;80.40
71668;DHT22;59504;54.806;9.640;2024-01-25T10:29:39;6.70;80.40
71668;DHT22;59504;54.806;9.640;2024-01-25T10:32:00;6.80;80.40
71668;DHT22;59504;54.806;9.640;2024-01-25T10:34:00;6.80;80.60
71668;DHT22;59504;54.806;9.640;2024-01-25T10:36:21;6.80;80.50
71668;DHT22;59504;54.806;9.640;2024-01-25T10:38:42;6.80;80.50
71668;DHT22;59504;54.806;9.640;2024-01-25T10:41:05;6.90;80.70
71668;DHT22;59504;54.806;9.640;2024-01-25T10:43:26;6.90;80.50
71668;DHT22;59504;54.806;9.640;2024-01-25T10:45:47;6.90;80.40
71668;DHT22;59504;54.806;9.640;2024-01-25T10:48:07;7.00;80.40
71668;DHT22;59504;54.806;9.640;2024-01-25T10:50:28;7.00;80.30
71668;DHT22;59504;54.806;9.640;2024-01-25T10:52:49;7.00;80.30
71668;DHT22;59504;54.806;9.640;2024-01-25T10:55:09;7.10;80.20
71668;DHT22;59504;54.806;9.640;2024-01-25T10:57:35;7.10;80.10
71668;DHT22;59504;54.806;9.640;2024-01-25T10:59:36;7.00;80.00
71668;DHT22;59504;54.806;9.640;2024-01-25T11:01:36;7.10;80.10
71668;DHT22;59504;54.806;9.640;2024-01-25T11:03:38;7.10;80.10
71668;DHT22;59504;54.806;9.640;2024-01-25T11:06:06;7.10;80.30
71668;DHT22;59504;54.806;9.640;2024-01-25T11:08:27;7.20;80.40
71668;DHT22;59504;54.806;9.640;2024-01-25T11:10:50;7.20;80.30
71668;DHT22;59504;54.806;9.640;2024-01-25T11:13:13;7.20;80.10
71668;DHT22;59504;54.806;9.640;2024-01-25T11:15:35;7.30;80.10
71668;DHT22;59504;54.806;9.640;2024-01-25T11:17:56;7.30;80.00
71668;DHT22;59504;54.806;9.640;2024-01-25T11:20:19;7.30;79.80
71668;DHT22;59504;54.806;9.640;2024-01-25T11:22:20;7.30;79.50
71668;DHT22;59504;54.806;9.640;2024-01-25T11:24:21;7.30;79.30
71668;DHT22;59504;54.806;9.640;2024-01-25T11:26:24;7.30;79.10
71668;DHT22;59504;54.806;9.640;2024-01-25T11:28:44;7.40;79.00
71668;DHT22;59504;54.806;9.640;2024-01-25T11:31:05;7.30;78.80
71668;DHT22;59504;54.806;9.640;2024-01-25T11:33:10;7.40;78.80
71668;DHT22;59504;54.806;9.640;2024-01-25T11:35:32;7.40;78.80
71668;DHT22;59504;54.806;9.640;2024-01-25T11:37:52;7.40;78.70
71668;DHT22;59504;54.806;9.640;2024-01-25T11:40:14;7.40;78.70
71668;DHT22;59504;54.806;9.640;2024-01-25T11:42:35;7.40;78.70
71668;DHT22;59504;54.806;9.640;2024-01-25T11:44:35;7.30;78.40
71668;DHT22;59504;54.806;9.640;2024-01-25T11:46:36;7.40;78.50
71668;DHT22;59504;54.806;9.640;2024-01-25T11:48:39;7.40;78.40
71668;DHT22;59504;54.806;9.640;2024-01-25T11:50:41;7.30;78.10
71668;DHT22;59504;54.806;9.640;2024-01-25T11:52:42;7.40;78.00
71668;DHT22;59504;54.806;9.640;2024-01-25T11:54:42;7.40;78.50
71668;DHT22;59504;54.806;9.640;2024-01-25T11:56:43;7.30;77.90
71668;DHT22;59504;54.806;9.640;2024-01-25T11:58:57;7.40;78.00
71668;DHT22;59504;54.806;9.640;2024-01-25T12:01:18;7.30;78.00
71668;DHT22;59504;54.806;9.640;2024-01-25T12:03:22;7.30;78.10
71668;DHT22;59504;54.806;9.640;2024-01-25T12:05:42;7.30;78.30
71668;DHT22;59504;54.806;9.640;2024-01-25T12:08:08;7.30;78.50
71668;DHT22;59504;54.806;9.640;2024-01-25T12:10:28;7.30;78.60
71668;DHT22;59504;54.806;9.640;2024-01-25T12:12:49;7.30;78.70
71668;DHT22;59504;54.806;9.640;2024-01-25T12:15:09;7.30;78.70
71668;DHT22;59504;54.806;9.640;2024-01-25T12:17:30;7.40;78.80
71668;DHT22;59504;54.806;9.640;2024-01-25T12:19:51;7.40;78.50
71668;DHT22;59504;54.806;9.640;2024-01-25T12:22:19;7.40;78.50
71668;DHT22;59504;54.806;9.640;2024-01-25T12:24:20;7.40;78.40
71668;DHT22;59504;54.806;9.640;2024-01-25T12:26:20;7.40;78.00
71668;DHT22;59504;54.806;9.640;2024-01-25T12:28:41;7.40;78.10
71668;DHT22;59504;54.806;9.640;2024-01-25T12:31:02;7.40;78.20
71668;DHT22;59504;54.806;9.640;2024-01-25T12:33:23;7.40;78.20
71668;DHT22;59504;54.806;9.640;2024-01-25T12:35:44;7.40;78.10
71668;DHT22;59504;54.806;9.640;2024-01-25T12:38:04;7.40;78.10
71668;DHT22;59504;54.806;9.640;2024-01-25T12:40:25;7.40;78.00
71668;DHT22;59504;54.806;9.640;2024-01-25T12:42:46;7.40;77.60
71668;DHT22;59504;54.806;9.640;2024-01-25T12:45:06;7.40;77.40
71668;DHT22;59504;54.806;9.640;2024-01-25T12:47:27;7.40;77.50
71668;DHT22;59504;54.806;9.640;2024-01-25T12:49:27;7.40;77.40
71668;DHT22;59504;54.806;9.640;2024-01-25T12:51:48;7.40;77.40
71668;DHT22;59504;54.806;9.640;2024-01-25T12:54:09;7.40;77.90
71668;DHT22;59504;54.806;9.640;2024-01-25T12:56:30;7.40;77.20
71668;DHT22;59504;54.806;9.640;2024-01-25T12:58:50;7.40;77.30
71668;DHT22;59504;54.806;9.640;2024-01-25T13:01:11;7.40;77.20
71668;DHT22;59504;54.806;9.640;2024-01-25T13:03:31;7.40;77.60
71668;DHT22;59504;54.806;9.640;2024-01-25T13:05:52;7.40;77.50
71668;DHT22;59504;54.806;9.640;2024-01-25T13:08:13;7.40;77.60
71668;DHT22;59504;54.806;9.640;2024-01-25T13:10:14;7.40;77.90
71668;DHT22;59504;54.806;9.640;2024-01-25T13:12:14;7.40;77.90
71668;DHT22;59504;54.806;9.640;2024-01-25T13:14:15;7.40;78.00
71668;DHT22;59504;54.806;9.640;2024-01-25T13:16:16;7.40;78.20
71668;DHT22;59504;54.806;9.640;2024-01-25T13:18:17;7.40;78.20
71668;DHT22;59504;54.806;9.640;2024-01-25T13:20:37;7.40;78.20
71668;DHT22;59504;54.806;9.640;2024-01-25T13:22:38;7.40;78.30
71668;DHT22;59504;54.806;9.640;2024-01-25T13:24:59;7.40;78.30
71668;DHT22;59504;54.806;9.640;2024-01-25T13:27:20;7.30;78.30
71668;DHT22;59504;54.806;9.640;2024-01-25T13:29:41;7.30;78.30
71668;DHT22;59504;54.806;9.640;2024-01-25T13:32:01;7.30;78.50
71668;DHT22;59504;54.806;9.640;2024-01-25T13:34:22;7.30;78.40
71668;DHT22;59504;54.806;9.640;2024-01-25T13:36:42;7.30;78.40
71668;DHT22;59504;54.806;9.640;2024-01-25T13:38:48;7.30;78.40
71668;DHT22;59504;54.806;9.640;2024-01-25T13:40:49;7.30;78.40
71668;DHT22;59504;54.806;9.640;2024-01-25T13:42:50;7.20;78.40
71668;DHT22;59504;54.806;9.640;2024-01-25T13:44:51;7.20;78.40
71668;DHT22;59504;54.806;9.640;2024-01-25T13:46:52;7.20;78.50
71668;DHT22;59504;54.806;9.640;2024-01-25T13:49:13;7.20;78.60
71668;DHT22;59504;54.806;9.640;2024-01-25T13:51:33;7.20;78.60
71668;DHT22;59504;54.806;9.640;2024-01-25T13:53:34;7.10;78.60
71668;DHT22;59504;54.806;9.640;2024-01-25T13:55:56;7.10;78.50
71668;DHT22;59504;54.806;9.640;2024-01-25T13:58:18;7.10;78.60
71668;DHT22;59504;54.806;9.640;2024-01-25T14:00:39;7.10;78.60
71668;DHT22;59504;54.806;9.640;2024-01-25T14:03:00;7.00;78.50
71668;DHT22;59504;54.806;9.640;2024-01-25T14:05:20;7.00;78.60
71668;DHT22;59504;54.806;9.640;2024-01-25T14:07:41;7.00;78.70
71668;DHT22;59504;54.806;9.640;2024-01-25T14:10:02;7.00;78.80
71668;DHT22;59504;54.806;9.640;2024-01-25T14:12:23;7.00;79.00